createdAt,value
2019-05-05T00:04:20.392Z,101084.09
2019-05-05T00:09:26.266Z,101084.09
2019-05-05T00:14:44.210Z,101089.39
2019-05-05T00:19:49.820Z,101089.39
2019-05-05T00:24:55.601Z,101086.75
2019-05-05T00:30:01.446Z,101092.47
2019-05-05T00:35:08.197Z,101096.01
2019-05-05T00:40:14.251Z,101104.40
2019-05-05T00:50:52.015Z,101096.44
2019-05-05T00:55:57.765Z,101105.72
2019-05-05T01:01:14.439Z,101104.39
2019-05-05T01:06:25.444Z,101104.83
2019-05-05T01:11:31.687Z,101104.40
2019-05-05T01:16:38.623Z,101103.52
2019-05-05T01:21:45.408Z,101107.92
2019-05-05T01:26:52.162Z,101107.87
2019-05-05T01:32:00.494Z,101102.57
2019-05-05T01:37:15.167Z,101096.84
2019-05-05T01:42:21.501Z,101091.97
2019-05-05T01:47:27.137Z,101080.03
2019-05-05T01:52:34.450Z,101076.54
2019-05-05T01:57:41.108Z,101082.25
2019-05-05T02:02:48.093Z,101073.83
2019-05-05T02:07:55.278Z,101087.14
2019-05-05T02:13:02.033Z,101090.67
2019-05-05T02:18:08.105Z,101093.73
2019-05-05T02:23:16.960Z,101092.83
2019-05-05T02:28:24.780Z,101088.02
2019-05-05T02:33:31.103Z,101085.83
2019-05-05T02:38:37.448Z,101077.91
2019-05-05T02:43:44.952Z,101079.20
2019-05-05T02:48:55.089Z,101077.89
2019-05-05T02:54:04.585Z,101082.30
2019-05-05T02:59:16.073Z,101078.79
2019-05-05T03:04:24.614Z,101069.08
2019-05-05T03:09:34.703Z,101062.46
2019-05-05T03:14:44.506Z,101063.79
2019-05-05T03:19:50.902Z,101065.98
2019-05-05T03:24:58.439Z,101070.85
2019-05-05T03:30:05.402Z,101069.53
2019-05-05T03:35:13.879Z,101067.69
2019-05-05T03:40:24.647Z,101069.34
2019-05-05T03:45:39.261Z,101084.26
2019-05-05T03:50:46.326Z,101079.41
2019-05-05T03:55:54.515Z,101080.75
2019-05-05T04:01:25.229Z,101078.11
2019-05-05T04:06:40.545Z,101079.77
2019-05-05T04:11:46.924Z,101073.66
2019-05-05T04:17:03.527Z,101074.09
2019-05-05T04:22:09.897Z,101079.73
2019-05-05T04:27:15.886Z,101070.39
2019-05-05T04:32:24.288Z,101081.03
2019-05-05T04:37:31.114Z,101077.13
2019-05-05T04:42:37.125Z,101070.10
2019-05-05T04:47:47.634Z,101079.37
2019-05-05T04:52:54.924Z,101076.29
2019-05-05T04:58:01.784Z,101075.45
2019-05-05T05:03:27.187Z,101076.37
2019-05-05T05:08:33.889Z,101078.72
2019-05-05T05:13:40.599Z,101073.41
2019-05-05T05:18:46.659Z,101074.29
2019-05-05T05:23:53.720Z,101081.23
2019-05-05T05:29:00.137Z,101082.16
2019-05-05T05:34:06.586Z,101074.70
2019-05-05T05:39:19.733Z,101082.22
2019-05-05T05:44:38.204Z,101083.58
2019-05-05T05:49:48.427Z,101088.45
2019-05-05T05:54:54.212Z,101099.50
2019-05-05T06:00:01.099Z,101098.21
2019-05-05T06:05:07.634Z,101094.64
2019-05-05T06:10:24.293Z,101096.75
2019-05-05T06:15:24.596Z,101094.48
2019-05-05T06:20:31.671Z,101090.41
2019-05-05T06:25:38.295Z,101090.78
2019-05-05T06:30:44.624Z,101089.86
2019-05-05T06:35:53.613Z,101092.39
2019-05-05T06:41:07.987Z,101096.23
2019-05-05T06:46:15.793Z,101096.93
2019-05-05T06:51:24.389Z,101099.93
2019-05-05T06:56:31.049Z,101107.80
2019-05-05T07:01:37.355Z,101102.17
2019-05-05T07:06:53.472Z,101099.56
2019-05-05T07:11:51.184Z,101099.50
2019-05-05T07:16:56.992Z,101102.24
2019-05-05T07:22:04.050Z,101105.09
2019-05-05T07:27:11.195Z,101104.13
2019-05-05T07:32:17.805Z,101103.89
2019-05-05T07:37:24.031Z,101099.94
2019-05-05T07:42:44.146Z,101105.84
2019-05-05T07:47:51.267Z,101107.27
2019-05-05T07:53:11.421Z,101109.17
2019-05-05T07:58:06.617Z,101111.20
2019-05-05T08:03:14.350Z,101104.06
2019-05-05T08:08:20.795Z,101104.12
2019-05-05T08:13:27.576Z,101108.10
2019-05-05T08:18:46.707Z,101104.66
2019-05-05T08:24:04.541Z,101108.50
2019-05-05T08:29:28.549Z,101109.16
2019-05-05T08:34:36.797Z,101116.96
2019-05-05T08:39:42.287Z,101106.05
2019-05-05T08:44:48.761Z,101103.88
2019-05-05T08:49:55.402Z,101108.84
2019-05-05T08:55:04.532Z,101103.00
2019-05-05T09:00:11.177Z,101102.86
2019-05-05T09:05:17.282Z,101105.61
2019-05-05T09:10:24.444Z,101111.55
2019-05-05T09:15:30.759Z,101103.66
2019-05-05T09:20:37.073Z,101105.04
2019-05-05T09:25:59.244Z,101109.47
2019-05-05T09:31:06.880Z,101104.59
2019-05-05T09:36:14.492Z,101107.39
2019-05-05T09:41:20.686Z,101110.45
2019-05-05T09:46:26.869Z,101110.85
2019-05-05T09:51:34.730Z,101114.50
2019-05-05T09:56:44.324Z,101114.25
2019-05-05T10:01:51.099Z,101118.92
2019-05-05T10:06:57.786Z,101114.43
2019-05-05T10:12:04.933Z,101105.27
2019-05-05T10:17:14.116Z,101097.97
2019-05-05T10:22:20.202Z,101102.50
2019-05-05T10:27:26.649Z,101105.02
2019-05-05T10:32:32.636Z,101098.50
2019-05-05T10:37:39.496Z,101108.36
2019-05-05T10:42:53.988Z,101117.00
2019-05-05T10:48:04.083Z,101109.66
2019-05-05T10:53:13.859Z,101119.13
2019-05-05T10:58:20.889Z,101112.05
2019-05-05T11:03:26.856Z,101116.16
2019-05-05T11:08:34.997Z,101114.02
2019-05-05T11:13:49.648Z,101106.66
2019-05-05T11:18:56.701Z,101117.19
2019-05-05T11:24:06.385Z,101117.95
2019-05-05T11:29:24.216Z,101118.24
2019-05-05T11:34:30.902Z,101117.58
2019-05-05T11:39:37.799Z,101121.69
2019-05-05T11:44:47.468Z,101116.89
2019-05-05T11:49:56.783Z,101116.89
2019-05-05T11:55:12.814Z,101116.97
2019-05-05T12:00:27.683Z,101124.44
2019-05-05T12:05:33.771Z,101102.03
2019-05-05T12:10:49.112Z,101111.61
2019-05-05T12:16:09.557Z,101106.73
2019-05-05T12:21:24.266Z,101104.36
2019-05-05T12:26:44.013Z,101108.91
2019-05-05T12:31:52.967Z,101101.47
2019-05-05T12:37:09.380Z,101104.07
2019-05-05T12:42:19.196Z,101102.82
2019-05-05T12:47:38.693Z,101106.20
2019-05-05T12:52:45.099Z,101100.91
2019-05-05T12:57:51.579Z,101106.72
2019-05-05T13:02:58.115Z,101095.80
2019-05-05T13:08:06.533Z,101097.47
2019-05-05T13:13:14.068Z,101102.25
2019-05-05T13:18:20.354Z,101085.48
2019-05-05T13:23:39.624Z,101094.16
2019-05-05T13:28:46.005Z,101084.06
2019-05-05T13:33:54.805Z,101089.03
2019-05-05T13:39:03.468Z,101091.54
2019-05-05T13:44:16.623Z,101089.16
2019-05-05T13:49:38.890Z,101082.66
2019-05-05T13:54:45.546Z,101072.30
2019-05-05T13:59:54.568Z,101068.75
2019-05-05T14:05:04.486Z,101066.90
2019-05-05T14:10:10.807Z,101059.91
2019-05-05T14:15:19.142Z,101055.58
2019-05-05T14:20:26.627Z,101050.78
2019-05-05T14:25:32.954Z,101045.76
2019-05-05T14:30:57.772Z,101047.18
2019-05-05T14:36:13.813Z,101046.26
2019-05-05T14:41:20.107Z,101037.78
2019-05-05T14:46:26.415Z,101041.91
2019-05-05T14:51:34.157Z,101027.75
2019-05-05T14:56:41.235Z,101034.98
2019-05-05T15:01:48.633Z,101024.49
2019-05-05T15:07:05.092Z,101019.34
2019-05-05T15:12:20.411Z,101015.58
2019-05-05T15:17:27.457Z,101012.48
2019-05-05T15:22:37.142Z,101005.95
2019-05-05T15:27:45.096Z,101015.05
2019-05-05T15:32:54.022Z,101007.14
2019-05-05T15:37:59.824Z,101012.68
2019-05-05T15:43:06.000Z,100995.50
2019-05-05T15:48:13.975Z,100996.09
2019-05-05T15:53:23.416Z,100993.13
2019-05-05T15:58:31.706Z,100986.95
2019-05-05T16:03:38.130Z,100980.95
2019-05-05T16:08:45.302Z,100982.48
2019-05-05T16:13:51.459Z,100982.56
2019-05-05T16:19:08.458Z,100975.87
2019-05-05T16:24:19.206Z,100974.84
2019-05-05T16:29:28.462Z,100967.77
2019-05-05T16:40:38.162Z,100964.09
2019-05-05T16:45:44.520Z,100963.66
2019-05-05T16:50:50.637Z,100967.27
2019-05-05T16:55:57.192Z,100961.57
2019-05-05T17:01:03.800Z,100957.34
2019-05-05T17:06:09.913Z,100960.16
2019-05-05T17:11:16.043Z,100962.48
2019-05-05T17:16:35.773Z,100962.36
2019-05-05T17:21:50.240Z,100965.87
2019-05-05T17:26:56.891Z,100955.87
2019-05-05T17:32:03.108Z,100949.06
2019-05-05T17:37:09.680Z,100949.48
2019-05-05T17:42:26.818Z,100951.44
2019-05-05T17:47:41.220Z,100949.95
2019-05-05T17:52:53.750Z,100958.23
2019-05-05T17:58:02.537Z,100947.91
2019-05-05T18:03:09.181Z,100951.03
2019-05-05T18:08:24.062Z,100950.59
2019-05-05T18:13:44.198Z,100951.31
2019-05-05T18:18:54.862Z,100956.68
2019-05-05T18:24:01.381Z,100950.11
2019-05-05T18:29:18.280Z,100947.23
2019-05-05T18:34:28.425Z,100954.64
2019-05-05T18:39:36.332Z,100941.34
2019-05-05T18:44:46.323Z,100949.09
2019-05-05T18:49:54.010Z,100953.86
2019-05-05T18:55:00.854Z,100941.78
2019-05-05T19:00:10.726Z,100940.40
2019-05-05T19:05:31.838Z,100936.98
2019-05-05T19:10:37.859Z,100931.86
2019-05-05T19:15:44.643Z,100925.67
2019-05-05T19:20:58.795Z,100925.90
2019-05-05T19:26:18.173Z,100928.98
2019-05-05T19:31:36.730Z,100926.02
2019-05-05T19:36:44.955Z,100932.84
2019-05-05T19:41:54.558Z,100925.30
2019-05-05T19:47:18.111Z,100921.77
2019-05-05T19:52:35.643Z,100925.75
2019-05-05T19:57:47.219Z,100932.84
2019-05-05T20:03:02.192Z,100937.48
2019-05-05T20:08:03.978Z,100925.23
2019-05-05T20:13:09.831Z,100929.31
2019-05-05T20:18:19.212Z,100931.67
2019-05-05T20:23:25.851Z,100936.00
2019-05-05T20:28:33.862Z,100926.86
2019-05-05T20:33:49.660Z,100926.78
2019-05-05T20:38:56.700Z,100931.19
2019-05-05T20:44:05.999Z,100929.61
2019-05-05T20:49:24.522Z,100933.13
2019-05-05T20:54:31.113Z,100927.04
2019-05-05T20:59:40.932Z,100927.34
2019-05-05T21:04:49.293Z,100931.39
2019-05-05T21:09:55.571Z,100919.63
2019-05-05T21:15:01.781Z,100928.56
2019-05-05T21:20:07.774Z,100921.92
2019-05-05T21:25:23.883Z,100918.61
2019-05-05T21:30:30.131Z,100917.69
2019-05-05T21:35:37.180Z,100921.19
2019-05-05T21:40:44.063Z,100913.02
2019-05-05T21:45:50.701Z,100922.66
2019-05-05T21:51:10.231Z,100916.16
2019-05-05T21:56:25.932Z,100915.58
2019-05-05T22:01:39.490Z,100911.53
2019-05-05T22:06:42.252Z,100921.31
2019-05-05T22:11:48.940Z,100921.67
2019-05-05T22:16:55.336Z,100925.05
2019-05-05T22:22:04.896Z,100926.94
2019-05-05T22:27:11.171Z,100923.41
2019-05-05T22:32:22.320Z,100914.56
2019-05-05T22:37:28.871Z,100916.33
2019-05-05T22:42:49.342Z,100906.19
2019-05-05T22:47:56.699Z,100912.36
2019-05-05T22:53:02.931Z,100907.96
2019-05-05T22:58:18.101Z,100908.72
2019-05-05T23:03:32.107Z,100896.66
2019-05-05T23:08:54.489Z,100900.51
2019-05-05T23:14:10.035Z,100895.50
2019-05-05T23:19:28.509Z,100902.13
2019-05-05T23:24:43.474Z,100900.73
2019-05-05T23:29:51.516Z,100906.41
2019-05-05T23:34:57.620Z,100901.16
2019-05-05T23:40:04.938Z,100903.03
2019-05-05T23:45:25.047Z,100889.07
2019-05-05T23:50:45.486Z,100888.08
2019-05-05T23:55:54.429Z,100892.08
